sensor_id;sensor_type;location;lat;lon;timestamp;P1;durP1;ratioP1;P2;durP2;ratioP2
5650;SDS011;40241;52.684;9.758;2023-10-19T00:00:45;6.10;;;4.67;;
5650;SDS011;40241;52.684;9.758;2023-10-19T00:03:14;5.20;;;4.57;;
5650;SDS011;40241;52.684;9.758;2023-10-19T00:05:41;5.50;;;5.00;;
5650;SDS011;40241;52.684;9.758;2023-10-19T00:08:07;6.03;;;4.50;;
5650;SDS011;40241;52.684;9.758;2023-10-19T00:10:38;6.37;;;4.63;;
5650;SDS011;40241;52.684;9.758;2023-10-19T00:13:04;6.80;;;4.90;;
5650;SDS011;40241;52.684;9.758;2023-10-19T00:15:31;7.80;;;5.20;;
5650;SDS011;40241;52.684;9.758;2023-10-19T00:17:59;5.47;;;4.83;;
5650;SDS011;40241;52.684;9.758;2023-10-19T00:20:32;5.30;;;4.80;;
5650;SDS011;40241;52.684;9.758;2023-10-19T00:23:06;5.17;;;4.57;;
5650;SDS011;40241;52.684;9.758;2023-10-19T00:25:32;6.37;;;5.37;;
5650;SDS011;40241;52.684;9.758;2023-10-19T00:27:59;7.80;;;5.10;;
5650;SDS011;40241;52.684;9.758;2023-10-19T00:30:28;5.10;;;4.60;;
5650;SDS011;40241;52.684;9.758;2023-10-19T00:33:00;5.73;;;5.13;;
5650;SDS011;40241;52.684;9.758;2023-10-19T00:35:29;7.47;;;5.47;;
5650;SDS011;40241;52.684;9.758;2023-10-19T00:38:07;5.50;;;5.00;;
5650;SDS011;40241;52.684;9.758;2023-10-19T00:40:51;6.03;;;5.43;;
5650;SDS011;40241;52.684;9.758;2023-10-19T00:43:30;5.73;;;5.20;;
5650;SDS011;40241;52.684;9.758;2023-10-19T00:46:01;6.03;;;4.80;;
5650;SDS011;40241;52.684;9.758;2023-10-19T00:48:28;6.10;;;5.50;;
5650;SDS011;40241;52.684;9.758;2023-10-19T00:50:54;5.70;;;5.20;;
5650;SDS011;40241;52.684;9.758;2023-10-19T00:53:32;6.43;;;4.80;;
5650;SDS011;40241;52.684;9.758;2023-10-19T00:56:02;7.93;;;6.20;;
5650;SDS011;40241;52.684;9.758;2023-10-19T00:58:31;7.53;;;6.10;;
5650;SDS011;40241;52.684;9.758;2023-10-19T01:01:01;7.83;;;6.23;;
5650;SDS011;40241;52.684;9.758;2023-10-19T01:03:30;6.63;;;5.33;;
5650;SDS011;40241;52.684;9.758;2023-10-19T01:06:03;6.30;;;5.70;;
5650;SDS011;40241;52.684;9.758;2023-10-19T01:08:34;8.17;;;6.53;;
5650;SDS011;40241;52.684;9.758;2023-10-19T01:11:07;6.80;;;5.10;;
5650;SDS011;40241;52.684;9.758;2023-10-19T01:13:36;6.37;;;5.77;;
5650;SDS011;40241;52.684;9.758;2023-10-19T01:16:03;7.10;;;5.77;;
5650;SDS011;40241;52.684;9.758;2023-10-19T01:18:29;6.70;;;6.03;;
5650;SDS011;40241;52.684;9.758;2023-10-19T01:20:57;8.87;;;6.63;;
5650;SDS011;40241;52.684;9.758;2023-10-19T01:23:27;8.30;;;6.20;;
5650;SDS011;40241;52.684;9.758;2023-10-19T01:25:56;8.07;;;6.40;;
5650;SDS011;40241;52.684;9.758;2023-10-19T01:28:27;7.23;;;6.50;;
5650;SDS011;40241;52.684;9.758;2023-10-19T01:31:17;6.10;;;5.50;;
5650;SDS011;40241;52.684;9.758;2023-10-19T01:33:53;9.80;;;5.97;;
5650;SDS011;40241;52.684;9.758;2023-10-19T01:36:30;7.53;;;6.50;;
5650;SDS011;40241;52.684;9.758;2023-10-19T01:39:02;9.30;;;6.90;;
5650;SDS011;40241;52.684;9.758;2023-10-19T01:41:34;8.23;;;6.57;;
5650;SDS011;40241;52.684;9.758;2023-10-19T01:43:59;6.60;;;5.97;;
5650;SDS011;40241;52.684;9.758;2023-10-19T01:46:29;7.90;;;7.10;;
5650;SDS011;40241;52.684;9.758;2023-10-19T01:48:58;7.10;;;6.40;;
5650;SDS011;40241;52.684;9.758;2023-10-19T01:51:27;8.20;;;6.63;;
5650;SDS011;40241;52.684;9.758;2023-10-19T01:53:54;7.63;;;6.77;;
5650;SDS011;40241;52.684;9.758;2023-10-19T01:56:22;10.73;;;6.90;;
5650;SDS011;40241;52.684;9.758;2023-10-19T01:58:48;10.10;;;7.57;;
5650;SDS011;40241;52.684;9.758;2023-10-19T02:01:16;8.13;;;7.03;;
5650;SDS011;40241;52.684;9.758;2023-10-19T02:03:54;9.27;;;6.83;;
5650;SDS011;40241;52.684;9.758;2023-10-19T02:06:31;8.97;;;7.83;;
5650;SDS011;40241;52.684;9.758;2023-10-19T02:11:42;9.70;;;7.93;;
5650;SDS011;40241;52.684;9.758;2023-10-19T02:14:12;10.07;;;7.63;;
5650;SDS011;40241;52.684;9.758;2023-10-19T02:16:40;10.37;;;7.37;;
5650;SDS011;40241;52.684;9.758;2023-10-19T02:19:12;8.57;;;7.70;;
5650;SDS011;40241;52.684;9.758;2023-10-19T02:21:38;8.60;;;7.50;;
5650;SDS011;40241;52.684;9.758;2023-10-19T02:24:07;11.03;;;8.07;;
5650;SDS011;40241;52.684;9.758;2023-10-19T02:26:34;9.53;;;7.97;;
5650;SDS011;40241;52.684;9.758;2023-10-19T02:29:00;10.83;;;7.90;;
5650;SDS011;40241;52.684;9.758;2023-10-19T02:31:32;10.43;;;8.60;;
5650;SDS011;40241;52.684;9.758;2023-10-19T02:33:58;10.57;;;8.67;;
5650;SDS011;40241;52.684;9.758;2023-10-19T02:36:27;9.53;;;7.70;;
5650;SDS011;40241;52.684;9.758;2023-10-19T02:41:24;9.93;;;8.93;;
5650;SDS011;40241;52.684;9.758;2023-10-19T02:43:51;9.53;;;8.00;;
5650;SDS011;40241;52.684;9.758;2023-10-19T02:46:27;8.73;;;7.80;;
5650;SDS011;40241;52.684;9.758;2023-10-19T02:49:02;10.30;;;7.73;;
5650;SDS011;40241;52.684;9.758;2023-10-19T02:51:29;12.53;;;8.70;;
5650;SDS011;40241;52.684;9.758;2023-10-19T02:53:55;11.10;;;8.60;;
5650;SDS011;40241;52.684;9.758;2023-10-19T02:56:21;11.60;;;8.87;;
5650;SDS011;40241;52.684;9.758;2023-10-19T02:58:48;11.00;;;9.40;;
5650;SDS011;40241;52.684;9.758;2023-10-19T03:01:18;13.80;;;9.70;;
5650;SDS011;40241;52.684;9.758;2023-10-19T03:03:50;9.60;;;8.60;;
5650;SDS011;40241;52.684;9.758;2023-10-19T03:06:20;11.90;;;8.87;;
5650;SDS011;40241;52.684;9.758;2023-10-19T03:08:46;10.67;;;9.07;;
5650;SDS011;40241;52.684;9.758;2023-10-19T03:11:13;11.30;;;8.97;;
5650;SDS011;40241;52.684;9.758;2023-10-19T03:13:39;9.93;;;8.80;;
5650;SDS011;40241;52.684;9.758;2023-10-19T03:16:06;9.97;;;8.97;;
5650;SDS011;40241;52.684;9.758;2023-10-19T03:18:33;11.30;;;9.03;;
5650;SDS011;40241;52.684;9.758;2023-10-19T03:21:00;12.30;;;9.10;;
5650;SDS011;40241;52.684;9.758;2023-10-19T03:23:26;10.70;;;9.17;;
5650;SDS011;40241;52.684;9.758;2023-10-19T03:25:54;10.03;;;8.87;;
5650;SDS011;40241;52.684;9.758;2023-10-19T03:28:40;10.53;;;7.97;;
5650;SDS011;40241;52.684;9.758;2023-10-19T03:31:06;13.07;;;9.47;;
5650;SDS011;40241;52.684;9.758;2023-10-19T03:33:32;11.17;;;9.23;;
5650;SDS011;40241;52.684;9.758;2023-10-19T03:36:01;10.73;;;9.20;;
5650;SDS011;40241;52.684;9.758;2023-10-19T03:38:27;11.53;;;9.50;;
5650;SDS011;40241;52.684;9.758;2023-10-19T03:40:56;10.90;;;7.90;;
5650;SDS011;40241;52.684;9.758;2023-10-19T03:43:24;13.17;;;10.13;;
5650;SDS011;40241;52.684;9.758;2023-10-19T03:45:52;13.00;;;9.63;;
5650;SDS011;40241;52.684;9.758;2023-10-19T03:48:21;12.23;;;9.47;;
5650;SDS011;40241;52.684;9.758;2023-10-19T03:50:55;10.33;;;9.17;;
5650;SDS011;40241;52.684;9.758;2023-10-19T03:53:22;13.20;;;10.20;;
5650;SDS011;40241;52.684;9.758;2023-10-19T03:55:48;12.90;;;10.10;;
5650;SDS011;40241;52.684;9.758;2023-10-19T03:58:15;13.63;;;10.60;;
5650;SDS011;40241;52.684;9.758;2023-10-19T04:00:41;13.57;;;10.50;;
5650;SDS011;40241;52.684;9.758;2023-10-19T04:03:06;12.13;;;10.20;;
5650;SDS011;40241;52.684;9.758;2023-10-19T04:05:32;12.23;;;9.50;;
5650;SDS011;40241;52.684;9.758;2023-10-19T04:08:03;11.33;;;9.83;;
5650;SDS011;40241;52.684;9.758;2023-10-19T04:10:37;13.10;;;8.73;;
5650;SDS011;40241;52.684;9.758;2023-10-19T04:13:04;15.43;;;10.20;;
5650;SDS011;40241;52.684;9.758;2023-10-19T04:15:34;11.17;;;8.83;;
5650;SDS011;40241;52.684;9.758;2023-10-19T04:18:01;10.43;;;9.43;;
5650;SDS011;40241;52.684;9.758;2023-10-19T04:20:33;12.67;;;8.67;;
5650;SDS011;40241;52.684;9.758;2023-10-19T04:23:20;12.13;;;9.77;;
5650;SDS011;40241;52.684;9.758;2023-10-19T04:25:46;12.03;;;9.30;;
5650;SDS011;40241;52.684;9.758;2023-10-19T04:28:12;10.57;;;8.70;;
5650;SDS011;40241;52.684;9.758;2023-10-19T04:30:55;14.60;;;9.40;;
5650;SDS011;40241;52.684;9.758;2023-10-19T04:33:20;11.93;;;9.40;;
5650;SDS011;40241;52.684;9.758;2023-10-19T04:35:47;14.07;;;8.83;;
5650;SDS011;40241;52.684;9.758;2023-10-19T04:38:19;10.87;;;9.43;;
5650;SDS011;40241;52.684;9.758;2023-10-19T04:40:45;11.80;;;8.50;;
5650;SDS011;40241;52.684;9.758;2023-10-19T04:43:10;14.00;;;9.13;;
5650;SDS011;40241;52.684;9.758;2023-10-19T04:45:39;13.63;;;10.43;;
5650;SDS011;40241;52.684;9.758;2023-10-19T04:48:05;12.03;;;9.77;;
5650;SDS011;40241;52.684;9.758;2023-10-19T04:50:31;11.30;;;10.03;;
5650;SDS011;40241;52.684;9.758;2023-10-19T04:52:56;13.00;;;9.13;;
5650;SDS011;40241;52.684;9.758;2023-10-19T04:55:21;14.83;;;9.57;;
5650;SDS011;40241;52.684;9.758;2023-10-19T04:57:47;10.20;;;8.70;;
5650;SDS011;40241;52.684;9.758;2023-10-19T05:00:13;10.30;;;8.73;;
5650;SDS011;40241;52.684;9.758;2023-10-19T05:02:39;11.70;;;9.00;;
5650;SDS011;40241;52.684;9.758;2023-10-19T05:05:05;10.40;;;7.70;;
5650;SDS011;40241;52.684;9.758;2023-10-19T05:07:30;12.00;;;9.03;;
5650;SDS011;40241;52.684;9.758;2023-10-19T05:09:56;9.37;;;8.33;;
5650;SDS011;40241;52.684;9.758;2023-10-19T05:12:23;11.70;;;8.83;;
5650;SDS011;40241;52.684;9.758;2023-10-19T05:14:48;11.53;;;9.50;;
5650;SDS011;40241;52.684;9.758;2023-10-19T05:17:14;11.13;;;9.50;;
5650;SDS011;40241;52.684;9.758;2023-10-19T05:19:39;11.33;;;8.47;;
5650;SDS011;40241;52.684;9.758;2023-10-19T05:22:05;11.60;;;8.43;;
5650;SDS011;40241;52.684;9.758;2023-10-19T05:24:32;8.23;;;7.43;;
5650;SDS011;40241;52.684;9.758;2023-10-19T05:26:58;13.93;;;8.63;;
5650;SDS011;40241;52.684;9.758;2023-10-19T05:29:23;11.37;;;9.10;;
5650;SDS011;40241;52.684;9.758;2023-10-19T05:31:49;9.87;;;8.43;;
5650;SDS011;40241;52.684;9.758;2023-10-19T05:34:18;10.70;;;8.37;;
5650;SDS011;40241;52.684;9.758;2023-10-19T05:36:45;9.30;;;8.27;;
5650;SDS011;40241;52.684;9.758;2023-10-19T05:39:11;9.00;;;7.60;;
5650;SDS011;40241;52.684;9.758;2023-10-19T05:41:38;11.27;;;8.30;;
5650;SDS011;40241;52.684;9.758;2023-10-19T05:44:05;9.50;;;8.00;;
5650;SDS011;40241;52.684;9.758;2023-10-19T05:46:30;9.87;;;8.23;;
5650;SDS011;40241;52.684;9.758;2023-10-19T05:48:56;11.63;;;7.53;;
5650;SDS011;40241;52.684;9.758;2023-10-19T05:51:22;9.73;;;7.83;;
5650;SDS011;40241;52.684;9.758;2023-10-19T05:53:48;8.67;;;7.63;;
5650;SDS011;40241;52.684;9.758;2023-10-19T05:56:13;8.73;;;7.83;;
5650;SDS011;40241;52.684;9.758;2023-10-19T05:58:41;11.43;;;8.90;;
5650;SDS011;40241;52.684;9.758;2023-10-19T06:01:06;10.37;;;8.03;;
5650;SDS011;40241;52.684;9.758;2023-10-19T06:03:32;10.83;;;8.60;;
5650;SDS011;40241;52.684;9.758;2023-10-19T06:05:57;10.40;;;8.00;;
5650;SDS011;40241;52.684;9.758;2023-10-19T06:08:23;8.40;;;7.43;;
5650;SDS011;40241;52.684;9.758;2023-10-19T06:10:52;8.40;;;7.43;;
5650;SDS011;40241;52.684;9.758;2023-10-19T06:13:17;9.67;;;8.50;;
5650;SDS011;40241;52.684;9.758;2023-10-19T06:15:43;9.50;;;8.40;;
5650;SDS011;40241;52.684;9.758;2023-10-19T06:18:09;9.00;;;7.43;;
5650;SDS011;40241;52.684;9.758;2023-10-19T06:20:35;12.77;;;7.70;;
5650;SDS011;40241;52.684;9.758;2023-10-19T06:23:01;10.30;;;8.00;;
5650;SDS011;40241;52.684;9.758;2023-10-19T06:25:30;10.17;;;8.03;;
5650;SDS011;40241;52.684;9.758;2023-10-19T06:27:57;9.57;;;7.73;;
5650;SDS011;40241;52.684;9.758;2023-10-19T06:30:23;8.67;;;7.20;;
5650;SDS011;40241;52.684;9.758;2023-10-19T06:32:58;9.67;;;7.37;;
5650;SDS011;40241;52.684;9.758;2023-10-19T06:35:31;10.00;;;7.40;;
5650;SDS011;40241;52.684;9.758;2023-10-19T06:37:58;8.50;;;7.67;;
5650;SDS011;40241;52.684;9.758;2023-10-19T06:40:25;8.73;;;7.63;;
5650;SDS011;40241;52.684;9.758;2023-10-19T06:42:57;7.73;;;7.00;;
5650;SDS011;40241;52.684;9.758;2023-10-19T06:45:23;7.87;;;7.07;;
5650;SDS011;40241;52.684;9.758;2023-10-19T06:47:50;8.53;;;7.50;;
5650;SDS011;40241;52.684;9.758;2023-10-19T06:50:17;8.17;;;7.37;;
5650;SDS011;40241;52.684;9.758;2023-10-19T06:52:44;9.93;;;8.03;;
5650;SDS011;40241;52.684;9.758;2023-10-19T06:55:15;7.90;;;7.00;;
5650;SDS011;40241;52.684;9.758;2023-10-19T06:57:51;7.57;;;6.63;;
5650;SDS011;40241;52.684;9.758;2023-10-19T07:00:18;8.47;;;7.10;;
5650;SDS011;40241;52.684;9.758;2023-10-19T07:02:45;9.00;;;8.07;;
5650;SDS011;40241;52.684;9.758;2023-10-19T07:05:12;7.97;;;7.17;;
5650;SDS011;40241;52.684;9.758;2023-10-19T07:07:42;9.50;;;7.50;;
5650;SDS011;40241;52.684;9.758;2023-10-19T07:10:08;8.47;;;6.80;;
5650;SDS011;40241;52.684;9.758;2023-10-19T07:12:38;7.23;;;6.60;;
5650;SDS011;40241;52.684;9.758;2023-10-19T07:15:06;6.90;;;6.30;;
5650;SDS011;40241;52.684;9.758;2023-10-19T07:17:36;8.90;;;6.70;;
5650;SDS011;40241;52.684;9.758;2023-10-19T07:20:03;7.10;;;6.43;;
5650;SDS011;40241;52.684;9.758;2023-10-19T07:22:31;7.00;;;6.30;;
5650;SDS011;40241;52.684;9.758;2023-10-19T07:25:03;6.60;;;6.00;;
5650;SDS011;40241;52.684;9.758;2023-10-19T07:27:33;6.57;;;5.97;;
5650;SDS011;40241;52.684;9.758;2023-10-19T07:29:59;5.70;;;5.20;;
5650;SDS011;40241;52.684;9.758;2023-10-19T07:32:31;7.00;;;6.30;;
5650;SDS011;40241;52.684;9.758;2023-10-19T07:34:56;5.97;;;5.40;;
5650;SDS011;40241;52.684;9.758;2023-10-19T07:37:22;6.80;;;6.20;;
5650;SDS011;40241;52.684;9.758;2023-10-19T07:39:47;6.13;;;5.27;;
5650;SDS011;40241;52.684;9.758;2023-10-19T07:42:14;7.70;;;5.90;;
5650;SDS011;40241;52.684;9.758;2023-10-19T07:44:40;7.47;;;6.63;;
5650;SDS011;40241;52.684;9.758;2023-10-19T07:47:05;7.13;;;5.50;;
5650;SDS011;40241;52.684;9.758;2023-10-19T07:49:34;6.70;;;6.10;;
5650;SDS011;40241;52.684;9.758;2023-10-19T07:52:04;5.83;;;5.23;;
5650;SDS011;40241;52.684;9.758;2023-10-19T07:54:35;5.73;;;4.97;;
5650;SDS011;40241;52.684;9.758;2023-10-19T07:57:01;7.50;;;5.43;;
5650;SDS011;40241;52.684;9.758;2023-10-19T07:59:30;5.80;;;5.20;;
5650;SDS011;40241;52.684;9.758;2023-10-19T08:01:56;6.10;;;5.50;;
5650;SDS011;40241;52.684;9.758;2023-10-19T08:04:21;5.60;;;5.10;;
5650;SDS011;40241;52.684;9.758;2023-10-19T08:06:47;6.07;;;5.47;;
5650;SDS011;40241;52.684;9.758;2023-10-19T08:09:12;5.80;;;5.30;;
5650;SDS011;40241;52.684;9.758;2023-10-19T08:11:37;6.07;;;5.50;;
5650;SDS011;40241;52.684;9.758;2023-10-19T08:14:03;5.60;;;5.10;;
5650;SDS011;40241;52.684;9.758;2023-10-19T08:16:30;5.70;;;4.97;;
5650;SDS011;40241;52.684;9.758;2023-10-19T08:18:57;5.10;;;4.70;;
5650;SDS011;40241;52.684;9.758;2023-10-19T08:21:22;5.13;;;4.67;;
5650;SDS011;40241;52.684;9.758;2023-10-19T08:23:48;4.80;;;4.40;;
5650;SDS011;40241;52.684;9.758;2023-10-19T08:26:13;4.40;;;4.10;;
5650;SDS011;40241;52.684;9.758;2023-10-19T08:28:40;4.80;;;4.20;;
5650;SDS011;40241;52.684;9.758;2023-10-19T08:31:07;4.70;;;4.27;;
5650;SDS011;40241;52.684;9.758;2023-10-19T08:33:35;4.73;;;4.20;;
5650;SDS011;40241;52.684;9.758;2023-10-19T08:36:04;4.40;;;4.00;;
5650;SDS011;40241;52.684;9.758;2023-10-19T08:38:30;4.40;;;4.10;;
5650;SDS011;40241;52.684;9.758;2023-10-19T08:40:55;4.87;;;4.47;;
5650;SDS011;40241;52.684;9.758;2023-10-19T08:43:20;4.40;;;4.00;;
5650;SDS011;40241;52.684;9.758;2023-10-19T08:45:46;4.03;;;3.70;;
5650;SDS011;40241;52.684;9.758;2023-10-19T08:48:12;4.53;;;4.10;;
5650;SDS011;40241;52.684;9.758;2023-10-19T08:50:39;4.60;;;3.87;;
5650;SDS011;40241;52.684;9.758;2023-10-19T08:53:06;4.80;;;4.03;;
5650;SDS011;40241;52.684;9.758;2023-10-19T08:55:35;4.40;;;4.00;;
5650;SDS011;40241;52.684;9.758;2023-10-19T08:58:01;3.90;;;3.60;;
5650;SDS011;40241;52.684;9.758;2023-10-19T09:00:29;4.63;;;4.17;;
5650;SDS011;40241;52.684;9.758;2023-10-19T09:03:09;4.27;;;3.90;;
5650;SDS011;40241;52.684;9.758;2023-10-19T09:05:38;3.87;;;2.97;;
5650;SDS011;40241;52.684;9.758;2023-10-19T09:08:05;4.90;;;3.50;;
5650;SDS011;40241;52.684;9.758;2023-10-19T09:10:31;3.30;;;3.10;;
5650;SDS011;40241;52.684;9.758;2023-10-19T09:13:04;3.40;;;3.20;;
5650;SDS011;40241;52.684;9.758;2023-10-19T09:15:34;3.20;;;3.00;;
5650;SDS011;40241;52.684;9.758;2023-10-19T09:18:19;3.80;;;3.53;;
5650;SDS011;40241;52.684;9.758;2023-10-19T09:20:46;3.20;;;3.00;;
5650;SDS011;40241;52.684;9.758;2023-10-19T09:23:34;4.03;;;3.73;;
5650;SDS011;40241;52.684;9.758;2023-10-19T09:26:01;3.33;;;3.13;;
5650;SDS011;40241;52.684;9.758;2023-10-19T09:28:36;3.40;;;3.20;;
5650;SDS011;40241;52.684;9.758;2023-10-19T09:31:02;3.10;;;2.90;;
5650;SDS011;40241;52.684;9.758;2023-10-19T09:33:28;5.30;;;2.97;;
5650;SDS011;40241;52.684;9.758;2023-10-19T09:35:57;3.47;;;3.17;;
5650;SDS011;40241;52.684;9.758;2023-10-19T09:38:26;2.90;;;2.70;;
5650;SDS011;40241;52.684;9.758;2023-10-19T09:40:52;3.73;;;3.43;;
5650;SDS011;40241;52.684;9.758;2023-10-19T09:43:32;3.43;;;3.23;;
5650;SDS011;40241;52.684;9.758;2023-10-19T09:46:00;3.33;;;3.10;;
5650;SDS011;40241;52.684;9.758;2023-10-19T09:48:31;3.20;;;2.97;;
5650;SDS011;40241;52.684;9.758;2023-10-19T09:51:00;2.83;;;2.63;;
5650;SDS011;40241;52.684;9.758;2023-10-19T09:53:28;3.00;;;2.80;;
5650;SDS011;40241;52.684;9.758;2023-10-19T09:55:59;2.83;;;2.73;;
5650;SDS011;40241;52.684;9.758;2023-10-19T09:58:28;3.33;;;3.13;;
5650;SDS011;40241;52.684;9.758;2023-10-19T10:00:58;3.00;;;2.80;;
5650;SDS011;40241;52.684;9.758;2023-10-19T10:06:17;3.03;;;2.83;;
5650;SDS011;40241;52.684;9.758;2023-10-19T10:08:52;3.40;;;3.13;;
5650;SDS011;40241;52.684;9.758;2023-10-19T10:13:51;4.17;;;3.57;;
5650;SDS011;40241;52.684;9.758;2023-10-19T10:16:18;3.40;;;3.13;;
5650;SDS011;40241;52.684;9.758;2023-10-19T10:18:49;3.20;;;3.00;;
5650;SDS011;40241;52.684;9.758;2023-10-19T10:21:22;3.37;;;3.17;;
5650;SDS011;40241;52.684;9.758;2023-10-19T10:23:53;3.20;;;3.00;;
5650;SDS011;40241;52.684;9.758;2023-10-19T10:26:28;3.37;;;3.07;;
5650;SDS011;40241;52.684;9.758;2023-10-19T10:31:45;3.40;;;3.13;;
5650;SDS011;40241;52.684;9.758;2023-10-19T10:37:17;3.60;;;3.23;;
5650;SDS011;40241;52.684;9.758;2023-10-19T10:39:42;3.40;;;3.20;;
5650;SDS011;40241;52.684;9.758;2023-10-19T10:42:09;3.10;;;2.90;;
5650;SDS011;40241;52.684;9.758;2023-10-19T10:44:36;3.80;;;3.30;;
5650;SDS011;40241;52.684;9.758;2023-10-19T10:47:15;3.23;;;3.03;;
5650;SDS011;40241;52.684;9.758;2023-10-19T10:49:50;3.20;;;3.00;;
5650;SDS011;40241;52.684;9.758;2023-10-19T10:54:55;3.57;;;3.27;;
5650;SDS011;40241;52.684;9.758;2023-10-19T10:57:21;2.90;;;2.70;;
5650;SDS011;40241;52.684;9.758;2023-10-19T11:00:00;3.90;;;3.60;;
5650;SDS011;40241;52.684;9.758;2023-10-19T11:02:40;3.30;;;3.10;;
5650;SDS011;40241;52.684;9.758;2023-10-19T11:05:10;3.10;;;2.90;;
5650;SDS011;40241;52.684;9.758;2023-10-19T11:07:39;3.73;;;3.43;;
5650;SDS011;40241;52.684;9.758;2023-10-19T11:10:05;2.93;;;2.73;;
5650;SDS011;40241;52.684;9.758;2023-10-19T11:12:31;3.33;;;3.13;;
5650;SDS011;40241;52.684;9.758;2023-10-19T11:14:58;3.20;;;3.00;;
5650;SDS011;40241;52.684;9.758;2023-10-19T11:17:25;2.90;;;2.70;;
5650;SDS011;40241;52.684;9.758;2023-10-19T11:19:55;3.60;;;3.30;;
5650;SDS011;40241;52.684;9.758;2023-10-19T11:22:22;4.03;;;3.50;;
5650;SDS011;40241;52.684;9.758;2023-10-19T11:24:49;3.50;;;3.23;;
5650;SDS011;40241;52.684;9.758;2023-10-19T11:27:27;3.57;;;3.37;;
5650;SDS011;40241;52.684;9.758;2023-10-19T11:29:55;3.30;;;3.10;;
5650;SDS011;40241;52.684;9.758;2023-10-19T11:32:21;4.50;;;3.47;;
5650;SDS011;40241;52.684;9.758;2023-10-19T11:34:46;3.93;;;3.63;;
5650;SDS011;40241;52.684;9.758;2023-10-19T11:37:13;3.97;;;3.47;;
5650;SDS011;40241;52.684;9.758;2023-10-19T11:39:38;3.47;;;3.27;;
5650;SDS011;40241;52.684;9.758;2023-10-19T11:42:04;4.30;;;3.90;;
5650;SDS011;40241;52.684;9.758;2023-10-19T11:44:29;3.57;;;3.27;;
5650;SDS011;40241;52.684;9.758;2023-10-19T11:46:55;3.97;;;3.60;;
5650;SDS011;40241;52.684;9.758;2023-10-19T11:49:20;3.87;;;3.57;;
5650;SDS011;40241;52.684;9.758;2023-10-19T11:51:45;4.43;;;3.77;;
5650;SDS011;40241;52.684;9.758;2023-10-19T11:54:11;4.13;;;3.77;;
5650;SDS011;40241;52.684;9.758;2023-10-19T11:56:38;3.40;;;3.20;;
5650;SDS011;40241;52.684;9.758;2023-10-19T11:59:04;3.83;;;3.50;;
5650;SDS011;40241;52.684;9.758;2023-10-19T12:01:29;5.73;;;3.83;;
5650;SDS011;40241;52.684;9.758;2023-10-19T12:03:54;4.00;;;3.50;;
5650;SDS011;40241;52.684;9.758;2023-10-19T12:06:20;3.97;;;3.67;;
5650;SDS011;40241;52.684;9.758;2023-10-19T12:08:48;4.20;;;3.90;;
5650;SDS011;40241;52.684;9.758;2023-10-19T12:11:14;4.40;;;4.00;;
5650;SDS011;40241;52.684;9.758;2023-10-19T12:13:44;4.50;;;4.10;;
5650;SDS011;40241;52.684;9.758;2023-10-19T12:16:10;5.00;;;4.60;;
5650;SDS011;40241;52.684;9.758;2023-10-19T12:18:38;4.43;;;4.03;;
5650;SDS011;40241;52.684;9.758;2023-10-19T12:21:04;4.77;;;4.37;;
5650;SDS011;40241;52.684;9.758;2023-10-19T12:23:33;5.13;;;4.73;;
5650;SDS011;40241;52.684;9.758;2023-10-19T12:25:58;6.17;;;4.70;;
5650;SDS011;40241;52.684;9.758;2023-10-19T12:28:28;5.23;;;4.80;;
5650;SDS011;40241;52.684;9.758;2023-10-19T12:30:53;5.03;;;4.63;;
5650;SDS011;40241;52.684;9.758;2023-10-19T12:33:18;4.53;;;4.13;;
5650;SDS011;40241;52.684;9.758;2023-10-19T12:35:44;5.03;;;4.63;;
5650;SDS011;40241;52.684;9.758;2023-10-19T12:38:11;5.90;;;5.27;;
5650;SDS011;40241;52.684;9.758;2023-10-19T12:40:44;5.23;;;4.57;;
5650;SDS011;40241;52.684;9.758;2023-10-19T12:43:11;5.73;;;5.13;;
5650;SDS011;40241;52.684;9.758;2023-10-19T12:45:37;5.70;;;5.10;;
5650;SDS011;40241;52.684;9.758;2023-10-19T12:48:03;6.20;;;5.60;;
5650;SDS011;40241;52.684;9.758;2023-10-19T12:50:35;6.23;;;5.43;;
5650;SDS011;40241;52.684;9.758;2023-10-19T12:53:01;5.20;;;4.70;;
5650;SDS011;40241;52.684;9.758;2023-10-19T12:55:31;5.63;;;5.13;;
5650;SDS011;40241;52.684;9.758;2023-10-19T12:57:57;6.80;;;5.93;;
5650;SDS011;40241;52.684;9.758;2023-10-19T13:00:24;6.20;;;5.60;;
5650;SDS011;40241;52.684;9.758;2023-10-19T13:02:57;6.40;;;5.70;;
5650;SDS011;40241;52.684;9.758;2023-10-19T13:05:31;7.80;;;6.03;;
5650;SDS011;40241;52.684;9.758;2023-10-19T13:08:00;8.03;;;5.63;;
5650;SDS011;40241;52.684;9.758;2023-10-19T13:10:30;6.90;;;6.20;;
5650;SDS011;40241;52.684;9.758;2023-10-19T13:12:58;6.30;;;5.70;;
5650;SDS011;40241;52.684;9.758;2023-10-19T13:15:31;7.87;;;5.80;;
5650;SDS011;40241;52.684;9.758;2023-10-19T13:17:57;7.40;;;6.10;;
5650;SDS011;40241;52.684;9.758;2023-10-19T13:20:26;7.53;;;6.03;;
5650;SDS011;40241;52.684;9.758;2023-10-19T13:22:53;7.00;;;6.30;;
5650;SDS011;40241;52.684;9.758;2023-10-19T13:25:19;8.93;;;6.60;;
5650;SDS011;40241;52.684;9.758;2023-10-19T13:27:53;8.07;;;7.10;;
5650;SDS011;40241;52.684;9.758;2023-10-19T13:30:19;11.37;;;6.43;;
5650;SDS011;40241;52.684;9.758;2023-10-19T13:32:44;8.90;;;7.17;;
5650;SDS011;40241;52.684;9.758;2023-10-19T13:35:11;7.60;;;6.30;;
5650;SDS011;40241;52.684;9.758;2023-10-19T13:37:36;9.93;;;6.73;;
5650;SDS011;40241;52.684;9.758;2023-10-19T13:40:02;7.93;;;7.10;;
5650;SDS011;40241;52.684;9.758;2023-10-19T13:42:31;8.33;;;6.80;;
5650;SDS011;40241;52.684;9.758;2023-10-19T13:44:57;9.63;;;7.23;;
5650;SDS011;40241;52.684;9.758;2023-10-19T13:47:22;8.93;;;7.60;;
5650;SDS011;40241;52.684;9.758;2023-10-19T13:49:48;9.60;;;7.70;;
5650;SDS011;40241;52.684;9.758;2023-10-19T13:52:13;7.70;;;6.90;;
5650;SDS011;40241;52.684;9.758;2023-10-19T13:54:40;8.97;;;7.80;;
5650;SDS011;40241;52.684;9.758;2023-10-19T13:57:06;8.77;;;7.60;;
5650;SDS011;40241;52.684;9.758;2023-10-19T13:59:31;10.60;;;8.50;;
5650;SDS011;40241;52.684;9.758;2023-10-19T14:01:58;9.23;;;7.47;;
5650;SDS011;40241;52.684;9.758;2023-10-19T14:04:24;11.17;;;7.50;;
5650;SDS011;40241;52.684;9.758;2023-10-19T14:06:49;11.07;;;7.90;;
5650;SDS011;40241;52.684;9.758;2023-10-19T14:09:15;12.17;;;8.63;;
5650;SDS011;40241;52.684;9.758;2023-10-19T14:11:42;12.60;;;9.07;;
5650;SDS011;40241;52.684;9.758;2023-10-19T14:14:09;9.80;;;7.70;;
5650;SDS011;40241;52.684;9.758;2023-10-19T14:16:36;9.70;;;8.07;;
5650;SDS011;40241;52.684;9.758;2023-10-19T14:19:01;11.60;;;8.87;;
5650;SDS011;40241;52.684;9.758;2023-10-19T14:21:28;11.17;;;8.47;;
5650;SDS011;40241;52.684;9.758;2023-10-19T14:23:53;11.03;;;8.10;;
5650;SDS011;40241;52.684;9.758;2023-10-19T14:26:19;11.30;;;8.60;;
5650;SDS011;40241;52.684;9.758;2023-10-19T14:28:44;9.57;;;8.13;;
5650;SDS011;40241;52.684;9.758;2023-10-19T14:31:10;9.77;;;8.17;;
5650;SDS011;40241;52.684;9.758;2023-10-19T14:33:36;9.77;;;7.37;;
5650;SDS011;40241;52.684;9.758;2023-10-19T14:36:06;9.80;;;7.90;;
5650;SDS011;40241;52.684;9.758;2023-10-19T14:38:32;12.53;;;8.80;;
5650;SDS011;40241;52.684;9.758;2023-10-19T14:40:58;12.80;;;8.37;;
5650;SDS011;40241;52.684;9.758;2023-10-19T14:43:23;12.30;;;9.00;;
5650;SDS011;40241;52.684;9.758;2023-10-19T14:45:50;9.50;;;8.00;;
5650;SDS011;40241;52.684;9.758;2023-10-19T14:48:16;12.63;;;8.87;;
5650;SDS011;40241;52.684;9.758;2023-10-19T14:50:44;11.20;;;8.50;;
5650;SDS011;40241;52.684;9.758;2023-10-19T14:53:10;12.43;;;8.20;;
5650;SDS011;40241;52.684;9.758;2023-10-19T14:55:35;12.83;;;9.03;;
5650;SDS011;40241;52.684;9.758;2023-10-19T14:58:01;11.37;;;8.13;;
5650;SDS011;40241;52.684;9.758;2023-10-19T15:00:26;13.93;;;9.37;;
5650;SDS011;40241;52.684;9.758;2023-10-19T15:03:12;15.00;;;8.67;;
5650;SDS011;40241;52.684;9.758;2023-10-19T15:05:38;11.00;;;9.07;;
5650;SDS011;40241;52.684;9.758;2023-10-19T15:08:06;12.30;;;8.90;;
5650;SDS011;40241;52.684;9.758;2023-10-19T15:10:31;11.67;;;9.20;;
5650;SDS011;40241;52.684;9.758;2023-10-19T15:12:58;13.53;;;9.50;;
5650;SDS011;40241;52.684;9.758;2023-10-19T15:15:27;13.30;;;8.43;;
5650;SDS011;40241;52.684;9.758;2023-10-19T15:17:54;13.00;;;7.93;;
5650;SDS011;40241;52.684;9.758;2023-10-19T15:20:21;12.13;;;8.13;;
5650;SDS011;40241;52.684;9.758;2023-10-19T15:22:50;14.63;;;8.77;;